createdAt,value
2018-03-04T00:01:41.443Z,1.40
2018-03-04T00:04:08.925Z,1.50
2018-03-04T00:06:37.181Z,1.50
2018-03-04T00:09:04.662Z,1.50
2018-03-04T00:11:32.166Z,1.50
2018-03-04T00:13:59.668Z,1.60
2018-03-04T00:16:27.920Z,1.60
2018-03-04T00:18:55.405Z,1.60
2018-03-04T00:21:23.733Z,1.60
2018-03-04T00:23:51.224Z,1.60
2018-03-04T00:26:19.573Z,1.60
2018-03-04T00:28:47.054Z,1.60
2018-03-04T00:31:14.540Z,1.60
2018-03-04T00:33:42.037Z,1.60
2018-03-04T00:36:09.519Z,1.60
2018-03-04T00:38:37.109Z,1.50
2018-03-04T00:41:05.369Z,1.60
2018-03-04T00:43:32.852Z,1.50
2018-03-04T00:46:00.344Z,1.60
2018-03-04T00:48:27.832Z,1.60
2018-03-04T00:50:55.328Z,1.60
2018-03-04T00:53:22.926Z,1.60
2018-03-04T00:55:50.398Z,1.60
2018-03-04T00:58:17.869Z,1.60
2018-03-04T01:00:45.337Z,1.60
2018-03-04T01:03:13.597Z,1.60
2018-03-04T01:05:41.087Z,1.50
2018-03-04T01:08:09.341Z,1.50
2018-03-04T01:10:36.825Z,1.50
2018-03-04T01:13:04.314Z,1.50
2018-03-04T01:15:31.803Z,1.50
2018-03-04T01:17:59.282Z,1.40
2018-03-04T01:20:27.554Z,1.30
2018-03-04T01:22:55.053Z,1.30
2018-03-04T01:25:22.531Z,1.30
2018-03-04T01:27:50.043Z,1.20
2018-03-04T01:30:18.292Z,1.10
2018-03-04T01:32:45.784Z,1.10
2018-03-04T01:35:14.057Z,1.10
2018-03-04T01:37:42.352Z,1.00
2018-03-04T01:40:09.829Z,1.00
2018-03-04T01:42:37.329Z,1.00
2018-03-04T01:45:05.586Z,0.90
2018-03-04T01:47:34.620Z,0.90
2018-03-04T01:50:02.859Z,0.90
2018-03-04T01:52:31.637Z,0.90
2018-03-04T01:54:59.131Z,0.90
2018-03-04T01:57:27.385Z,0.80
2018-03-04T01:59:54.873Z,0.80
2018-03-04T02:02:23.128Z,0.80
2018-03-04T02:04:50.626Z,0.80
2018-03-04T02:07:18.103Z,0.70
2018-03-04T02:09:45.605Z,0.70
2018-03-04T02:12:13.078Z,0.70
2018-03-04T02:14:41.336Z,0.70
2018-03-04T02:17:08.910Z,0.70
2018-03-04T02:19:37.166Z,0.70
2018-03-04T02:22:04.639Z,0.70
2018-03-04T02:24:32.886Z,0.90
2018-03-04T02:27:00.360Z,0.80
2018-03-04T02:29:28.631Z,1.10
2018-03-04T02:31:56.121Z,1.00
2018-03-04T02:34:23.623Z,1.10
2018-03-04T02:36:51.110Z,1.10
2018-03-04T02:39:19.370Z,1.10
2018-03-04T02:41:46.853Z,1.10
2018-03-04T02:44:15.120Z,1.10
2018-03-04T02:46:42.605Z,1.10
2018-03-04T02:49:10.094Z,1.10
2018-03-04T02:51:37.582Z,1.10
2018-03-04T02:54:05.087Z,1.00
2018-03-04T02:56:32.583Z,1.00
2018-03-04T02:59:00.074Z,0.90
2018-03-04T03:01:28.317Z,0.80
2018-03-04T03:03:55.823Z,0.80
2018-03-04T03:06:24.061Z,0.70
2018-03-04T03:08:51.570Z,0.70
2018-03-04T03:11:19.066Z,0.70
2018-03-04T03:13:46.586Z,0.70
2018-03-04T03:16:14.139Z,0.70
2018-03-04T03:18:41.603Z,0.70
2018-03-04T03:21:09.119Z,0.60
2018-03-04T03:23:36.597Z,0.60
2018-03-04T03:26:04.839Z,0.70
2018-03-04T03:28:32.327Z,0.70
2018-03-04T03:31:00.622Z,0.70
2018-03-04T03:33:28.862Z,0.70
2018-03-04T03:35:56.366Z,0.70
2018-03-04T03:38:23.838Z,0.90
2018-03-04T03:40:51.326Z,0.80
2018-03-04T03:43:18.808Z,0.80
2018-03-04T03:45:47.078Z,0.90
2018-03-04T03:48:14.553Z,0.80
2018-03-04T03:50:42.851Z,0.80
2018-03-04T03:53:10.329Z,0.80
2018-03-04T03:55:37.810Z,0.80
2018-03-04T03:58:05.327Z,0.80
2018-03-04T04:00:32.814Z,0.70
2018-03-04T04:03:00.291Z,0.70
2018-03-04T04:05:27.771Z,0.60
2018-03-04T04:07:56.005Z,0.50
2018-03-04T04:10:23.508Z,0.50
2018-03-04T04:12:51.763Z,0.40
2018-03-04T04:15:20.770Z,0.40
2018-03-04T04:17:49.009Z,0.40
2018-03-04T04:20:16.512Z,0.30
2018-03-04T04:22:44.761Z,0.30
2018-03-04T04:25:12.337Z,0.30
2018-03-04T04:27:40.602Z,0.20
2018-03-04T04:30:08.088Z,0.20
2018-03-04T04:32:36.354Z,0.20
2018-03-04T04:35:04.593Z,0.20
2018-03-04T04:37:32.854Z,0.20
2018-03-04T04:40:00.330Z,0.10
2018-03-04T04:42:27.921Z,0.10
2018-03-04T04:44:56.158Z,0.10
2018-03-04T04:47:23.647Z,0.10
2018-03-04T04:49:51.140Z,0.10
2018-03-04T04:52:18.637Z,0.10
2018-03-04T04:54:46.133Z,0.10
2018-03-04T04:57:14.394Z,0.10
2018-03-04T04:59:46.496Z,0.10
2018-03-04T05:02:13.998Z,0.10
2018-03-04T05:04:41.476Z,0.10
2018-03-04T05:07:09.734Z,0.00
2018-03-04T05:09:37.226Z,0.00
2018-03-04T05:12:05.488Z,0.00
2018-03-04T05:14:33.778Z,0.00
2018-03-04T05:17:02.050Z,0.00
2018-03-04T05:19:30.301Z,0.00
2018-03-04T05:21:57.786Z,0.00
2018-03-04T05:24:26.044Z,0.00
2018-03-04T05:26:53.531Z,-0.10
2018-03-04T05:29:21.779Z,0.00
2018-03-04T05:31:49.301Z,0.00
2018-03-04T05:34:16.780Z,0.00
2018-03-04T05:36:44.279Z,-0.10
2018-03-04T05:39:12.530Z,-0.10
2018-03-04T05:41:40.011Z,-0.10
2018-03-04T05:44:07.493Z,0.00
2018-03-04T05:46:34.983Z,0.00
2018-03-04T05:49:02.482Z,0.00
2018-03-04T05:51:30.767Z,-0.10
2018-03-04T05:53:58.262Z,-0.10
2018-03-04T05:56:25.765Z,-0.10
2018-03-04T05:58:54.025Z,-0.20
2018-03-04T06:01:23.126Z,-0.20
2018-03-04T06:03:50.638Z,-0.20
2018-03-04T06:06:18.127Z,-0.20
2018-03-04T06:08:45.620Z,-0.20
2018-03-04T06:11:13.891Z,-0.20
2018-03-04T06:13:42.144Z,-0.20
2018-03-04T06:16:10.661Z,-0.20
2018-03-04T06:18:38.922Z,-0.20
2018-03-04T06:21:07.200Z,-0.20
2018-03-04T06:23:35.456Z,-0.20
2018-03-04T06:26:02.946Z,-0.20
2018-03-04T06:28:30.445Z,-0.20
2018-03-04T06:30:57.938Z,-0.20
2018-03-04T06:33:25.453Z,-0.20
2018-03-04T06:35:53.710Z,-0.10
2018-03-04T06:38:21.200Z,-0.10
2018-03-04T06:40:48.694Z,-0.10
2018-03-04T06:43:16.995Z,0.00
2018-03-04T06:45:45.223Z,0.00
2018-03-04T06:48:12.696Z,0.00
2018-03-04T06:50:40.310Z,0.10
2018-03-04T06:53:07.790Z,0.10
2018-03-04T06:55:35.269Z,0.20
2018-03-04T06:58:02.764Z,0.20
2018-03-04T07:00:30.261Z,0.30
2018-03-04T07:02:57.745Z,0.30
2018-03-04T07:05:25.254Z,0.40
2018-03-04T07:07:52.741Z,0.50
2018-03-04T07:10:20.236Z,0.50
2018-03-04T07:12:48.504Z,0.70
2018-03-04T07:15:16.771Z,0.80
2018-03-04T07:17:45.761Z,0.80
2018-03-04T07:20:14.762Z,0.90
2018-03-04T07:22:42.238Z,0.90
2018-03-04T07:25:10.491Z,1.10
2018-03-04T07:27:37.976Z,1.10
2018-03-04T07:30:05.488Z,1.10
2018-03-04T07:32:32.958Z,1.20
2018-03-04T07:35:00.449Z,1.30
2018-03-04T07:37:27.923Z,1.40
2018-03-04T07:39:55.417Z,1.50
2018-03-04T07:42:22.894Z,1.60
2018-03-04T07:44:50.385Z,1.80
2018-03-04T07:47:17.878Z,1.80
2018-03-04T07:49:45.382Z,2.00
2018-03-04T07:52:13.611Z,2.20
2018-03-04T07:54:41.115Z,2.10
2018-03-04T07:57:09.353Z,2.40
2018-03-04T07:59:36.861Z,2.30
2018-03-04T08:02:05.107Z,2.50
2018-03-04T08:04:32.594Z,2.50
2018-03-04T08:07:00.856Z,2.70
2018-03-04T08:09:29.102Z,2.70
2018-03-04T08:11:56.609Z,2.70
2018-03-04T08:14:24.123Z,2.80
2018-03-04T08:16:51.606Z,2.90
2018-03-04T08:19:19.858Z,3.00
2018-03-04T08:21:47.342Z,3.00
2018-03-04T08:24:27.544Z,3.10
2018-03-04T08:27:07.079Z,3.10
2018-03-04T08:29:34.550Z,3.20
2018-03-04T08:32:02.090Z,3.30
2018-03-04T08:34:29.621Z,3.30
2018-03-04T08:36:58.601Z,3.30
2018-03-04T08:39:26.069Z,3.30
2018-03-04T08:41:54.337Z,3.30
2018-03-04T08:44:22.563Z,3.10
2018-03-04T08:46:50.046Z,3.10
2018-03-04T08:49:17.521Z,3.10
2018-03-04T08:51:45.031Z,3.00
2018-03-04T08:54:12.518Z,3.10
2018-03-04T08:56:40.018Z,3.10
2018-03-04T08:59:07.493Z,3.10
2018-03-04T09:01:34.982Z,3.20
2018-03-04T09:04:02.494Z,3.30
2018-03-04T09:06:29.978Z,3.50
2018-03-04T09:08:57.454Z,3.50
2018-03-04T09:11:24.952Z,3.60
2018-03-04T09:13:53.206Z,4.00
2018-03-04T09:16:20.712Z,3.90
2018-03-04T09:18:48.264Z,4.00
2018-03-04T09:21:15.761Z,4.10
2018-03-04T09:23:43.251Z,4.20
2018-03-04T09:26:10.743Z,4.30
2018-03-04T09:28:38.283Z,4.30
2018-03-04T09:31:05.763Z,4.40
2018-03-04T09:33:33.245Z,4.50
2018-03-04T09:36:00.740Z,4.60
2018-03-04T09:38:28.357Z,4.70
2018-03-04T09:40:56.566Z,5.00
2018-03-04T09:43:24.076Z,4.90
2018-03-04T09:45:51.566Z,5.10
2018-03-04T09:48:19.031Z,5.30
2018-03-04T09:50:46.529Z,5.30
2018-03-04T09:53:14.772Z,5.40
2018-03-04T09:55:42.279Z,5.40
2018-03-04T09:58:09.765Z,5.50
2018-03-04T10:00:37.255Z,5.40
2018-03-04T10:03:04.740Z,5.40
2018-03-04T10:05:32.219Z,5.40
2018-03-04T10:07:59.723Z,5.40
2018-03-04T10:10:27.225Z,5.40
2018-03-04T10:12:54.726Z,5.40
2018-03-04T10:15:22.214Z,5.40
2018-03-04T10:17:50.469Z,5.40
2018-03-04T10:20:17.946Z,5.30
2018-03-04T10:22:46.201Z,5.40
2018-03-04T10:25:13.682Z,5.40
2018-03-04T10:27:41.924Z,5.50
2018-03-04T10:30:09.400Z,5.50
2018-03-04T10:32:36.894Z,5.60
2018-03-04T10:35:04.382Z,5.80
2018-03-04T10:37:31.868Z,5.90
2018-03-04T10:39:59.452Z,6.00
2018-03-04T10:42:28.572Z,6.20
2018-03-04T10:44:56.053Z,6.20
2018-03-04T10:47:23.557Z,6.20
2018-03-04T10:49:51.929Z,6.30
2018-03-04T10:52:19.406Z,6.30
2018-03-04T10:54:47.669Z,6.50
2018-03-04T10:57:15.923Z,6.50
2018-03-04T10:59:43.415Z,6.50
2018-03-04T11:15:37.154Z,6.80
2018-03-04T11:18:05.409Z,6.80
2018-03-04T11:20:32.892Z,6.80
2018-03-04T11:23:00.374Z,6.90
2018-03-04T11:25:28.631Z,7.00
2018-03-04T11:27:56.862Z,7.10
2018-03-04T11:30:24.344Z,7.10
2018-03-04T11:32:51.836Z,7.20
2018-03-04T11:35:20.108Z,7.50
2018-03-04T11:37:48.375Z,7.50
2018-03-04T11:40:16.620Z,7.50
2018-03-04T11:42:44.105Z,7.50
2018-03-04T11:45:12.354Z,7.50
2018-03-04T11:47:40.766Z,7.50
2018-03-04T11:50:09.009Z,7.40
2018-03-04T11:52:36.599Z,7.40
2018-03-04T11:55:04.840Z,7.60
2018-03-04T11:57:32.320Z,7.60
2018-03-04T11:59:59.774Z,7.70
2018-03-04T12:02:27.286Z,7.70
2018-03-04T12:04:54.766Z,7.70
2018-03-04T12:07:22.277Z,7.70
2018-03-04T12:09:49.757Z,7.80
2018-03-04T12:12:18.162Z,7.80
2018-03-04T12:14:45.753Z,8.00
2018-03-04T12:17:14.018Z,8.00
2018-03-04T12:19:41.496Z,8.00
2018-03-04T12:22:09.779Z,8.20
2018-03-04T12:24:38.033Z,8.30
2018-03-04T12:27:05.538Z,8.30
2018-03-04T12:29:33.017Z,8.50
2018-03-04T12:32:00.584Z,8.60
2018-03-04T12:34:29.002Z,9.10
2018-03-04T12:36:57.301Z,9.10
2018-03-04T12:39:24.790Z,9.10
2018-03-04T12:41:52.280Z,9.10
2018-03-04T12:44:20.445Z,9.40
2018-03-04T12:46:47.936Z,9.60
2018-03-04T12:49:16.188Z,9.80
2018-03-04T12:51:43.670Z,9.70
2018-03-04T12:54:11.940Z,9.70
2018-03-04T12:56:40.188Z,9.60
2018-03-04T12:59:07.679Z,9.60
2018-03-04T13:01:35.933Z,9.20
2018-03-04T13:04:03.518Z,9.20
2018-03-04T13:06:31.767Z,9.30
2018-03-04T13:08:59.237Z,9.30
2018-03-04T13:11:27.482Z,9.50
2018-03-04T13:13:55.003Z,9.50
2018-03-04T13:16:22.471Z,9.70
2018-03-04T13:18:49.963Z,9.70
2018-03-04T13:21:17.462Z,9.70
2018-03-04T13:23:44.948Z,9.80
2018-03-04T13:26:12.425Z,9.80
2018-03-04T13:28:39.918Z,9.90
2018-03-04T13:31:07.392Z,9.80
2018-03-04T13:33:35.625Z,9.70
2018-03-04T13:36:03.099Z,9.80
2018-03-04T13:38:30.577Z,9.70
2018-03-04T13:40:58.837Z,9.70
2018-03-04T13:43:26.336Z,9.70
2018-03-04T13:45:53.813Z,9.80
2018-03-04T13:48:21.351Z,10.00
2018-03-04T13:50:48.811Z,10.10
2018-03-04T13:53:16.314Z,10.00
2018-03-04T13:55:43.897Z,10.10
2018-03-04T13:58:12.146Z,9.90
2018-03-04T14:00:39.641Z,9.90
2018-03-04T14:03:07.892Z,9.70
2018-03-04T14:05:35.366Z,9.70
2018-03-04T14:08:03.630Z,9.70
2018-03-04T14:10:31.920Z,9.60
2018-03-04T14:13:00.166Z,9.60
2018-03-04T14:15:28.414Z,9.70
2018-03-04T14:17:55.885Z,9.70
2018-03-04T14:20:23.371Z,9.60
2018-03-04T14:22:50.846Z,9.60
2018-03-04T14:25:19.082Z,9.60
2018-03-04T14:27:46.549Z,9.50
2018-03-04T14:30:14.067Z,9.70
2018-03-04T14:32:41.562Z,9.80
2018-03-04T14:35:09.070Z,9.70
2018-03-04T14:37:36.634Z,9.60
2018-03-04T14:40:04.114Z,9.60
2018-03-04T14:42:31.587Z,9.50
2018-03-04T14:44:59.100Z,9.30
2018-03-04T14:47:26.610Z,9.10
2018-03-04T14:49:54.858Z,9.10
2018-03-04T14:52:22.335Z,9.10
2018-03-04T14:54:49.835Z,9.20
2018-03-04T14:57:18.069Z,9.10
2018-03-04T14:59:45.580Z,9.10
2018-03-04T15:02:13.829Z,9.20
2018-03-04T15:04:41.318Z,9.20
2018-03-04T15:07:08.799Z,9.20
2018-03-04T15:09:36.294Z,9.20
2018-03-04T15:12:03.775Z,9.20
2018-03-04T15:14:32.015Z,9.30
2018-03-04T15:16:59.513Z,9.30
2018-03-04T15:19:27.755Z,9.20
2018-03-04T15:21:55.258Z,9.20
2018-03-04T15:24:22.738Z,9.20
2018-03-04T15:26:50.246Z,9.10
2018-03-04T15:29:17.706Z,9.00
2018-03-04T15:31:45.184Z,8.90
2018-03-04T15:34:12.665Z,8.80
2018-03-04T15:36:40.156Z,8.70
2018-03-04T15:39:07.631Z,8.70
2018-03-04T15:41:35.904Z,8.50
2018-03-04T15:44:03.386Z,8.50
2018-03-04T15:46:31.631Z,8.40
2018-03-04T15:48:59.100Z,8.40
2018-03-04T15:51:26.585Z,8.50
2018-03-04T15:53:54.059Z,8.50
2018-03-04T15:56:21.565Z,8.40
2018-03-04T15:58:49.059Z,8.40
2018-03-04T16:01:16.549Z,8.30
2018-03-04T16:03:44.025Z,8.20
2018-03-04T16:06:11.571Z,8.20
2018-03-04T16:08:39.107Z,8.20
2018-03-04T16:11:07.337Z,8.00
2018-03-04T16:13:34.835Z,8.00
2018-03-04T16:16:02.311Z,8.00
2018-03-04T16:18:29.795Z,8.00
2018-03-04T16:20:57.276Z,8.00
2018-03-04T16:23:24.753Z,8.00
2018-03-04T16:25:52.238Z,7.90
2018-03-04T16:28:19.716Z,7.80
2018-03-04T16:30:47.181Z,7.80
2018-03-04T16:33:14.683Z,7.70
2018-03-04T16:35:42.929Z,7.40
2018-03-04T16:38:10.509Z,7.40
2018-03-04T16:40:38.752Z,7.10
2018-03-04T16:43:06.241Z,7.10
2018-03-04T16:45:34.491Z,6.80
2018-03-04T16:48:01.976Z,6.80
2018-03-04T16:50:30.211Z,6.70
2018-03-04T16:52:57.713Z,6.60
2018-03-04T16:55:25.197Z,6.50
2018-03-04T16:57:52.690Z,6.50
2018-03-04T17:00:20.301Z,6.40
2018-03-04T17:02:48.557Z,6.20
2018-03-04T17:05:16.821Z,6.20
2018-03-04T17:07:44.298Z,6.20
2018-03-04T17:10:12.566Z,6.10
2018-03-04T17:12:40.814Z,6.10
2018-03-04T17:15:08.313Z,6.10
2018-03-04T17:17:36.712Z,5.90
2018-03-04T17:20:04.200Z,5.90
2018-03-04T17:22:32.240Z,5.90
2018-03-04T17:25:00.507Z,5.80
2018-03-04T17:27:27.987Z,5.80
2018-03-04T17:29:55.476Z,5.80
2018-03-04T17:32:23.745Z,5.80
2018-03-04T17:34:51.248Z,5.80
2018-03-04T17:37:19.506Z,5.90
2018-03-04T17:39:46.977Z,5.90
2018-03-04T17:42:15.228Z,5.80
2018-03-04T17:44:42.736Z,5.80
2018-03-04T17:47:10.243Z,5.80
2018-03-04T17:49:37.738Z,5.80
2018-03-04T17:52:05.221Z,5.80
2018-03-04T17:54:32.697Z,5.70
2018-03-04T17:57:00.187Z,5.80
2018-03-04T17:59:27.685Z,5.70
2018-03-04T18:01:55.149Z,5.70
2018-03-04T18:04:22.630Z,5.60
2018-03-04T18:06:50.110Z,5.60
2018-03-04T18:09:17.602Z,5.60
2018-03-04T18:11:45.133Z,5.50
2018-03-04T18:14:13.414Z,5.40
2018-03-04T18:16:41.659Z,5.40
2018-03-04T18:19:09.147Z,5.40
2018-03-04T18:21:36.628Z,5.30
2018-03-04T18:24:04.117Z,5.30
2018-03-04T18:26:31.594Z,5.30
2018-03-04T18:28:59.091Z,5.30
2018-03-04T18:31:27.322Z,5.30
2018-03-04T18:33:54.818Z,5.20
2018-03-04T18:36:23.064Z,5.20
2018-03-04T18:38:50.553Z,5.20
2018-03-04T18:41:18.823Z,5.20
2018-03-04T18:43:47.082Z,5.20
2018-03-04T18:46:14.589Z,5.20
2018-03-04T18:48:42.081Z,5.20
2018-03-04T18:51:09.556Z,5.10
2018-03-04T18:53:37.034Z,5.20
2018-03-04T18:56:05.297Z,5.10
2018-03-04T18:58:32.799Z,5.10
2018-03-04T19:01:00.314Z,5.10
2018-03-04T19:03:27.800Z,5.10
2018-03-04T19:05:55.296Z,5.10
2018-03-04T19:08:22.805Z,5.10
2018-03-04T19:10:51.066Z,5.00
2018-03-04T19:13:18.548Z,5.00
2018-03-04T19:15:46.043Z,5.00
2018-03-04T19:18:13.516Z,5.00
2018-03-04T19:20:41.118Z,4.90
2018-03-04T19:23:09.366Z,4.90
2018-03-04T19:25:36.858Z,4.90
2018-03-04T19:28:05.102Z,4.90
2018-03-04T19:30:32.649Z,4.80
2018-03-04T19:33:00.120Z,4.80
2018-03-04T19:35:27.603Z,4.80
2018-03-04T19:37:55.861Z,4.80
2018-03-04T19:40:23.347Z,4.80
2018-03-04T19:42:50.849Z,4.70
2018-03-04T19:45:18.324Z,4.70
2018-03-04T19:47:45.793Z,4.70
2018-03-04T19:50:13.272Z,4.70
2018-03-04T19:52:40.789Z,4.60
2018-03-04T19:55:08.269Z,4.60
2018-03-04T19:57:36.529Z,4.60
2018-03-04T20:00:04.019Z,4.60
2018-03-04T20:02:32.289Z,4.50
2018-03-04T20:05:00.560Z,4.50
2018-03-04T20:07:28.833Z,4.50
2018-03-04T20:09:57.076Z,4.60
2018-03-04T20:12:24.587Z,4.50
2018-03-04T20:14:52.064Z,4.60
2018-03-04T20:17:19.914Z,4.50
2018-03-04T20:19:47.417Z,4.50
2018-03-04T20:22:14.917Z,4.50
2018-03-04T20:24:43.192Z,4.40
2018-03-04T20:27:11.473Z,4.40
2018-03-04T20:29:39.756Z,4.40
2018-03-04T20:32:08.035Z,4.40
2018-03-04T20:34:35.542Z,4.40
2018-03-04T20:37:03.022Z,4.40
2018-03-04T20:39:30.527Z,4.40
2018-03-04T20:41:58.047Z,4.40
2018-03-04T20:44:26.325Z,4.40
2018-03-04T20:46:54.588Z,4.40
2018-03-04T20:49:22.081Z,4.40
2018-03-04T20:51:49.593Z,4.40
2018-03-04T20:54:17.073Z,4.40
2018-03-04T20:56:45.343Z,4.40
2018-03-04T20:59:12.824Z,4.40
2018-03-04T21:01:40.339Z,4.40
2018-03-04T21:04:07.817Z,4.40
2018-03-04T21:06:35.329Z,4.40
2018-03-04T21:09:02.827Z,4.40
2018-03-04T21:11:30.328Z,4.30
2018-03-04T21:13:57.810Z,4.30
2018-03-04T21:16:25.304Z,4.30
2018-03-04T21:18:52.794Z,4.30
2018-03-04T21:21:20.297Z,4.30
2018-03-04T21:23:47.801Z,4.20
2018-03-04T21:26:15.311Z,4.30
2018-03-04T21:28:42.808Z,4.30
2018-03-04T21:31:11.050Z,4.20
2018-03-04T21:33:38.548Z,4.20
2018-03-04T21:36:06.052Z,4.20
2018-03-04T21:38:33.550Z,4.20
2018-03-04T21:41:01.039Z,4.20
2018-03-04T21:43:28.539Z,4.20
2018-03-04T21:45:56.026Z,4.20
2018-03-04T21:48:23.523Z,4.20
2018-03-04T21:50:51.023Z,4.20
2018-03-04T21:53:20.038Z,4.40
2018-03-04T21:55:47.521Z,4.50
2018-03-04T21:58:15.775Z,4.60
2018-03-04T22:00:44.021Z,4.70
2018-03-04T22:03:11.597Z,4.70
2018-03-04T22:05:39.086Z,4.70
2018-03-04T22:08:06.606Z,4.80
2018-03-04T22:10:34.066Z,4.90
2018-03-04T22:13:01.558Z,4.90
2018-03-04T22:15:29.822Z,5.00
2018-03-04T22:17:58.103Z,5.00
2018-03-04T22:20:26.370Z,5.00
2018-03-04T22:22:54.649Z,5.00
2018-03-04T22:25:22.890Z,5.10
2018-03-04T22:27:50.382Z,5.00
2018-03-04T22:30:18.629Z,5.00
2018-03-04T22:32:46.116Z,5.00
2018-03-04T22:35:14.403Z,4.90
2018-03-04T22:37:41.909Z,4.90
2018-03-04T22:40:09.431Z,4.80
2018-03-04T22:42:36.889Z,5.00
2018-03-04T22:45:04.368Z,5.00
2018-03-04T22:47:31.857Z,5.10
2018-03-04T22:49:59.322Z,4.90
2018-03-04T22:52:26.810Z,4.90
2018-03-04T22:54:55.065Z,4.80
2018-03-04T22:57:23.337Z,4.90
2018-03-04T22:59:51.567Z,4.80
2018-03-04T23:02:19.033Z,4.80
2018-03-04T23:04:46.517Z,4.80
2018-03-04T23:07:14.001Z,4.80
2018-03-04T23:09:42.259Z,4.80
2018-03-04T23:12:09.723Z,4.80
2018-03-04T23:14:37.206Z,4.70
2018-03-04T23:17:04.674Z,4.60
2018-03-04T23:19:32.157Z,4.50
2018-03-04T23:21:59.655Z,4.50
2018-03-04T23:24:27.926Z,4.50
2018-03-04T23:26:55.397Z,4.50
2018-03-04T23:29:23.650Z,4.40
2018-03-04T23:31:51.899Z,4.50
2018-03-04T23:34:19.390Z,4.50
2018-03-04T23:36:46.848Z,4.60
2018-03-04T23:39:14.342Z,4.50
2018-03-04T23:41:41.800Z,4.50
2018-03-04T23:44:09.331Z,4.50
2018-03-04T23:46:37.009Z,4.40
2018-03-04T23:49:05.273Z,4.30
2018-03-04T23:51:33.497Z,4.30
2018-03-04T23:54:00.961Z,4.30
2018-03-04T23:56:28.446Z,4.30
2018-03-04T23:58:55.921Z,4.20
